Anderson Acres, Nevada
Current Conditions -  °F | °C
As of 2:15 PM on Wednesday 22 Oct 2014 (Local Time) from KRTS Reporting Station
Clear Clear  
Wind Chill: 63°   Ceiling: Unl
Heat Index: 63°   Visibility: 10mi
Dew Point: 25°   Wind: 5mph
Humidity: 24%   Direction: 200°SSW
Pressure: 30.1"   Gusts: NA
Location:  39.7378°N, 119.889°W
Report Text: KRTS 222115Z AUTO 20004KT 10SM CLR 17/M04 A3010 RMK AO2
Loading
Personal Weather Stations






























Interactive Weather Map
Tropical Storm Tracking
New forecast layout! Learn more

10-Day Weather Forecast

Advertisements
Track Severe Weather on mobile